Time;durP1;ratioP1;P1;durP2;ratioP2;P2;SDS_P1;SDS_P2;PMS_P1;PMS_P2;Temp;Humidity;BMP_temperature;BMP_pressure;BME280_temperature;BME280_humidity;BME280_pressure;Samples;Min_cycle;Max_cycle;Signal;HPM_P1;HPM_P2
2022/03/09 00:02:18;;;;;;;8.30;4.00;;;7.20;1.00;;;;;;5073897;28;20969;-75
2022/03/09 00:04:48;;;;;;;6.30;4.43;;;7.10;1.00;;;;;;5077861;28;20458;-75
2022/03/09 00:07:16;;;;;;;4.33;3.93;;;7.00;1.00;;;;;;5078435;28;20477;-75
2022/03/09 00:09:44;;;;;;;4.90;3.97;;;6.90;1.00;;;;;;5078669;28;20462;-76
2022/03/09 00:12:13;;;;;;;6.07;3.43;;;7.10;1.00;;;;;;5082759;28;20541;-76
2022/03/09 00:14:41;;;;;;;4.43;3.10;;;7.10;1.00;;;;;;5079831;28;21292;-76
2022/03/09 00:17:09;;;;;;;4.67;3.37;;;6.90;1.00;;;;;;5073228;28;20543;-75
2022/03/09 00:19:37;;;;;;;5.87;3.60;;;6.70;1.00;;;;;;5077242;28;20466;-76
2022/03/09 00:22:07;;;;;;;6.57;3.80;;;6.60;1.00;;;;;;5074363;28;20454;-75
2022/03/09 00:24:35;;;;;;;10.50;5.07;;;6.60;1.00;;;;;;5074506;28;21185;-75
2022/03/09 00:27:04;;;;;;;6.53;5.20;;;6.70;1.00;;;;;;5072400;28;20496;-74
2022/03/09 00:29:32;;;;;;;6.90;3.70;;;6.70;1.00;;;;;;5074287;28;20474;-75
2022/03/09 00:32:00;;;;;;;5.63;4.60;;;6.80;1.00;;;;;;5075719;28;20461;-76
2022/03/09 00:34:29;;;;;;;6.27;4.23;;;6.80;1.00;;;;;;5077213;28;20454;-76
2022/03/09 00:36:57;;;;;;;6.77;4.30;;;6.80;1.00;;;;;;5083816;28;20472;-76
2022/03/09 00:39:27;;;;;;;4.90;4.03;;;6.80;1.00;;;;;;5067544;28;20477;-77
2022/03/09 00:41:55;;;;;;;8.00;4.53;;;6.80;1.00;;;;;;5081829;28;20446;-76
2022/03/09 00:44:23;;;;;;;4.67;3.73;;;6.70;1.00;;;;;;5073545;28;20450;-76
2022/03/09 00:46:51;;;;;;;5.43;3.63;;;6.70;1.00;;;;;;5070515;28;20530;-76
2022/03/09 00:49:19;;;;;;;6.00;4.23;;;6.70;1.00;;;;;;5082755;28;20451;-77
2022/03/09 00:51:48;;;;;;;7.73;3.93;;;6.70;1.00;;;;;;5072244;28;21110;-78
2022/03/09 00:54:16;;;;;;;6.57;3.60;;;6.60;1.00;;;;;;5074384;28;20450;-76
2022/03/09 00:56:45;;;;;;;6.07;2.90;;;6.60;1.00;;;;;;5086199;28;20491;-76
2022/03/09 00:59:14;;;;;;;5.07;3.13;;;6.50;1.00;;;;;;5077100;28;20458;-77
2022/03/09 01:01:42;;;;;;;5.20;3.53;;;6.50;1.00;;;;;;5072443;28;20492;-76
2022/03/09 01:04:11;;;;;;;6.23;4.37;;;6.50;1.00;;;;;;5072191;28;20512;-76
2022/03/09 01:06:59;;;;;;;7.77;4.03;;;6.50;1.00;;;;;;5081873;28;20457;-77
2022/03/09 01:09:27;;;;;;;6.38;3.88;;;6.40;1.00;;;;;;5082000;28;20460;-75
2022/03/09 01:11:57;;;;;;;7.40;4.57;;;6.30;1.00;;;;;;5084906;28;20927;-75
2022/03/09 01:14:25;;;;;;;5.55;3.58;;;6.10;1.00;;;;;;5086509;28;20515;-75
2022/03/09 01:16:53;;;;;;;3.47;3.17;;;6.00;1.00;;;;;;5085281;28;20716;-77
2022/03/09 01:19:21;;;;;;;5.50;4.03;;;6.20;1.00;;;;;;5086453;28;20257;-75
2022/03/09 01:21:50;;;;;;;5.67;3.73;;;6.00;1.00;;;;;;5079513;28;20254;-75
2022/03/09 01:24:18;;;;;;;6.57;5.73;;;6.20;1.00;;;;;;5074780;28;20465;-75
2022/03/09 01:26:47;;;;;;;8.63;3.57;;;6.20;1.00;;;;;;5084916;28;20472;-75
2022/03/09 01:29:16;;;;;;;6.60;4.53;;;6.20;1.00;;;;;;5081247;28;20832;-76
2022/03/09 01:31:44;;;;;;;6.90;5.20;;;6.20;1.00;;;;;;5083851;28;20523;-75
2022/03/09 01:34:13;;;;;;;9.32;4.22;;;6.20;1.00;;;;;;5081530;28;20454;-76
2022/03/09 01:36:41;;;;;;;6.55;4.00;;;6.10;1.00;;;;;;5088364;28;20220;-76
2022/03/09 01:39:09;;;;;;;6.30;3.92;;;6.20;1.00;;;;;;5077000;28;20202;-75
2022/03/09 01:41:37;;;;;;;7.63;4.13;;;6.50;1.00;;;;;;5088398;28;20208;-75
2022/03/09 01:44:07;;;;;;;7.63;3.80;;;6.10;1.00;;;;;;5079100;28;20202;-76
2022/03/09 01:46:37;;;;;;;5.50;3.80;;;6.20;1.00;;;;;;5076666;28;20220;-76
2022/03/09 01:49:05;;;;;;;8.02;4.55;;;6.20;1.00;;;;;;5080460;28;20306;-75
2022/03/09 01:51:35;;;;;;;4.90;4.37;;;6.10;1.00;;;;;;5071493;28;20196;-75
2022/03/09 01:54:04;;;;;;;5.67;4.07;;;6.00;1.00;;;;;;5076085;28;20446;-74
2022/03/09 01:56:33;;;;;;;12.77;5.03;;;5.80;1.00;;;;;;5075927;28;20489;-76
2022/03/09 01:59:02;;;;;;;7.30;4.60;;;5.80;1.00;;;;;;5078230;28;20465;-75
2022/03/09 02:01:30;;;;;;;5.63;4.03;;;5.90;1.00;;;;;;5082780;28;20450;-75
2022/03/09 02:04:01;;;;;;;8.13;5.35;;;5.90;1.00;;;;;;5076592;28;20454;-76
2022/03/09 02:06:32;;;;;;;4.32;3.55;;;6.00;1.00;;;;;;5080325;28;20674;-76
2022/03/09 02:11:46;;;;;;;9.27;4.20;;;6.20;1.00;;;;;;5084448;28;20564;-76
2022/03/09 02:14:31;;;;;;;5.67;4.43;;;6.00;1.00;;;;;;5078655;28;20460;-75
2022/03/09 02:17:03;;;;;;;7.85;4.05;;;5.90;1.00;;;;;;5081467;28;20481;-76
2022/03/09 02:19:33;;;;;;;6.03;4.00;;;5.90;1.00;;;;;;5070798;28;20209;-76
2022/03/09 02:22:06;;;;;;;6.47;3.97;;;5.90;1.00;;;;;;5071397;28;20446;-76
2022/03/09 02:24:36;;;;;;;4.80;3.85;;;5.70;1.00;;;;;;5076777;28;20258;-76
2022/03/09 02:27:04;;;;;;;6.90;4.10;;;6.00;1.00;;;;;;5074533;28;20216;-76
2022/03/09 02:29:33;;;;;;;7.00;4.07;;;5.60;1.00;;;;;;5075778;28;20454;-76
2022/03/09 02:32:01;;;;;;;8.13;4.82;;;5.50;1.00;;;;;;5076546;28;20464;-75
2022/03/09 02:34:30;;;;;;;5.72;3.70;;;5.50;1.00;;;;;;5076410;28;20196;-77
2022/03/09 02:36:58;;;;;;;6.80;4.53;;;5.60;1.00;;;;;;5074680;28;20256;-76
2022/03/09 02:39:27;;;;;;;6.60;3.95;;;5.60;1.00;;;;;;5072667;28;20292;-77
2022/03/09 02:41:56;;;;;;;6.32;4.80;;;5.40;1.00;;;;;;5074876;28;20640;-76
2022/03/09 02:44:25;;;;;;;5.43;3.10;;;5.40;1.00;;;;;;5072482;28;20217;-75
2022/03/09 02:46:53;;;;;;;7.53;3.90;;;5.50;1.00;;;;;;5076692;28;20259;-77
2022/03/09 02:49:21;;;;;;;6.23;4.07;;;5.50;1.00;;;;;;5076711;28;20530;-76
2022/03/09 02:51:50;;;;;;;6.07;4.43;;;5.60;1.00;;;;;;5073418;28;20445;-75
2022/03/09 02:54:18;;;;;;;6.50;5.07;;;5.80;1.00;;;;;;5083054;28;20196;-76
2022/03/09 02:56:46;;;;;;;6.30;3.50;;;5.50;1.00;;;;;;5087609;28;20211;-75
2022/03/09 02:59:16;;;;;;;9.33;4.10;;;5.40;1.00;;;;;;5073752;28;20279;-76
2022/03/09 03:01:44;;;;;;;6.00;3.93;;;5.50;1.00;;;;;;5083142;28;20530;-75
2022/03/09 03:04:13;;;;;;;6.30;4.20;;;5.70;1.00;;;;;;5074327;28;20463;-75
2022/03/09 03:06:41;;;;;;;8.23;5.83;;;5.50;1.00;;;;;;5076990;28;20477;-75
2022/03/09 03:09:09;;;;;;;10.10;5.28;;;5.50;1.00;;;;;;5074922;28;20495;-76
2022/03/09 03:11:37;;;;;;;8.90;4.38;;;5.50;1.00;;;;;;5075763;28;20201;-75
2022/03/09 03:14:05;;;;;;;4.55;3.85;;;5.40;1.00;;;;;;5082061;28;20215;-75
2022/03/09 03:16:35;;;;;;;6.75;4.15;;;5.30;1.00;;;;;;5072885;28;20757;-75
2022/03/09 03:19:03;;;;;;;4.45;4.05;;;5.10;1.00;;;;;;5072393;28;20273;-75
2022/03/09 03:21:31;;;;;;;9.98;4.07;;;5.10;1.00;;;;;;5071468;28;20254;-75
2022/03/09 03:24:00;;;;;;;6.53;4.40;;;5.10;1.00;;;;;;5075132;28;20192;-75
2022/03/09 03:26:28;;;;;;;5.13;3.83;;;5.10;1.00;;;;;;5081801;28;20499;-75
2022/03/09 03:28:58;;;;;;;5.45;3.92;;;5.00;1.00;;;;;;5081341;28;20442;-74
2022/03/09 03:31:29;;;;;;;4.45;4.05;;;5.10;1.00;;;;;;5081692;28;20290;-76
2022/03/09 03:33:59;;;;;;;4.55;4.10;;;5.20;1.00;;;;;;5076106;28;20536;-75
2022/03/09 03:36:27;;;;;;;5.72;4.10;;;5.50;1.00;;;;;;5071532;28;20242;-75
2022/03/09 03:38:56;;;;;;;5.37;3.57;;;5.10;1.00;;;;;;5073642;28;20703;-75
2022/03/09 03:41:24;;;;;;;6.03;4.35;;;4.90;1.00;;;;;;5073952;28;20457;-74
2022/03/09 03:43:54;;;;;;;5.50;4.15;;;4.90;1.00;;;;;;5081688;28;20206;-75
2022/03/09 03:46:22;;;;;;;7.38;4.13;;;5.00;1.00;;;;;;5078434;28;20219;-77
2022/03/09 03:48:51;;;;;;;4.63;3.85;;;4.80;1.00;;;;;;5081727;28;20205;-76
2022/03/09 03:51:20;;;;;;;5.43;4.05;;;4.90;1.00;;;;;;5074852;28;20307;-76
2022/03/09 03:53:49;;;;;;;7.15;4.40;;;4.90;1.00;;;;;;5077887;28;20196;-76
2022/03/09 03:56:17;;;;;;;6.78;5.30;;;4.90;1.00;;;;;;5076573;28;20210;-77
2022/03/09 03:58:45;;;;;;;5.78;3.83;;;4.90;1.00;;;;;;5082885;28;20644;-76
2022/03/09 04:01:13;;;;;;;4.65;3.60;;;4.90;1.00;;;;;;5075574;28;20208;-76
2022/03/09 04:03:41;;;;;;;5.15;3.97;;;4.90;1.00;;;;;;5077483;28;20208;-75
2022/03/09 04:06:10;;;;;;;6.90;3.88;;;4.90;1.00;;;;;;5075276;28;20203;-75
2022/03/09 04:08:39;;;;;;;4.60;3.95;;;5.00;1.00;;;;;;5075350;28;20751;-75
2022/03/09 04:11:07;;;;;;;8.77;4.63;;;5.20;1.00;;;;;;5082493;28;20201;-76
2022/03/09 04:13:36;;;;;;;6.22;3.75;;;5.00;1.00;;;;;;5078491;28;20231;-76
2022/03/09 04:16:04;;;;;;;7.97;4.30;;;4.90;1.00;;;;;;5071230;28;20292;-76
2022/03/09 04:18:33;;;;;;;5.50;4.23;;;4.80;1.00;;;;;;5079902;28;20220;-76
2022/03/09 04:21:01;;;;;;;4.20;3.77;;;5.00;1.00;;;;;;5074053;28;20464;-76
2022/03/09 04:23:29;;;;;;;5.85;4.57;;;4.90;1.00;;;;;;5073730;28;20496;-77
2022/03/09 04:26:00;;;;;;;4.88;3.75;;;4.90;1.00;;;;;;5073343;28;20211;-76
2022/03/09 04:28:31;;;;;;;5.35;3.67;;;4.90;1.00;;;;;;5075584;28;20249;-76
2022/03/09 04:30:59;;;;;;;7.15;4.60;;;5.00;1.00;;;;;;5081437;28;20195;-76
2022/03/09 04:33:27;;;;;;;4.18;3.22;;;4.90;1.00;;;;;;5073956;28;20273;-76
2022/03/09 04:35:58;;;;;;;5.22;4.50;;;5.10;1.00;;;;;;5073903;28;20617;-76
2022/03/09 04:38:27;;;;;;;6.18;4.07;;;5.10;1.00;;;;;;5077256;28;20219;-76
2022/03/09 04:40:55;;;;;;;8.88;4.25;;;4.80;1.00;;;;;;5082731;28;20257;-75
2022/03/09 04:43:25;;;;;;;6.43;4.53;;;4.80;1.00;;;;;;5080450;28;20265;-75
2022/03/09 04:45:53;;;;;;;6.18;3.63;;;4.80;1.00;;;;;;5072445;28;20202;-76
2022/03/09 04:48:22;;;;;;;6.25;4.30;;;5.00;1.00;;;;;;5083042;28;20218;-76
2022/03/09 04:50:50;;;;;;;7.20;4.20;;;4.70;1.00;;;;;;5077803;28;20870;-75
2022/03/09 04:53:18;;;;;;;5.95;3.30;;;4.60;1.00;;;;;;5076503;28;20209;-76
2022/03/09 04:55:46;;;;;;;4.03;2.75;;;4.70;1.00;;;;;;5080232;28;20228;-76
2022/03/09 04:58:15;;;;;;;5.97;3.20;;;4.70;1.00;;;;;;5076697;28;20228;-76
2022/03/09 05:00:44;;;;;;;7.60;4.22;;;4.70;1.00;;;;;;5082503;28;20205;-77
2022/03/09 05:03:12;;;;;;;10.05;3.95;;;4.70;1.00;;;;;;5083615;28;20812;-77
2022/03/09 05:05:41;;;;;;;6.68;4.00;;;4.90;1.00;;;;;;5078904;28;20234;-76
2022/03/09 05:08:09;;;;;;;6.93;4.28;;;4.60;1.00;;;;;;5083528;28;20215;-77
2022/03/09 05:10:38;;;;;;;4.55;4.05;;;4.50;1.00;;;;;;5085353;28;20623;-76
2022/03/09 05:13:06;;;;;;;4.78;3.63;;;4.60;1.00;;;;;;5081463;28;20204;-77
2022/03/09 05:15:35;;;;;;;9.95;4.65;;;4.60;1.00;;;;;;5074934;28;20578;-75
2022/03/09 05:18:04;;;;;;;4.73;3.93;;;4.50;1.00;;;;;;5075252;28;20308;-74
2022/03/09 05:20:35;;;;;;;9.50;4.53;;;4.50;1.00;;;;;;5076330;28;20596;-75
2022/03/09 05:23:04;;;;;;;7.05;3.80;;;4.50;1.00;;;;;;5080606;28;20201;-75
2022/03/09 05:25:33;;;;;;;6.50;4.32;;;4.50;1.00;;;;;;5074203;28;20295;-76
2022/03/09 05:28:02;;;;;;;6.05;4.65;;;4.50;1.00;;;;;;5071318;28;20241;-75
2022/03/09 05:30:30;;;;;;;7.25;4.25;;;4.50;1.00;;;;;;5074537;28;20194;-75
2022/03/09 05:32:58;;;;;;;7.55;4.38;;;4.50;1.00;;;;;;5084538;28;20196;-76
2022/03/09 05:35:28;;;;;;;7.07;4.07;;;4.80;1.00;;;;;;5081526;28;20944;-77
2022/03/09 05:37:56;;;;;;;5.22;4.15;;;4.30;1.00;;;;;;5081881;28;20212;-76
2022/03/09 05:40:24;;;;;;;12.18;6.90;;;4.10;1.00;;;;;;5079914;28;20265;-76
2022/03/09 05:42:52;;;;;;;5.30;4.80;;;4.20;1.00;;;;;;5084741;28;20309;-76
2022/03/09 05:45:20;;;;;;;6.43;3.72;;;4.20;1.00;;;;;;5082814;28;20212;-76
2022/03/09 05:47:53;;;;;;;6.35;4.47;;;4.50;1.00;;;;;;5082120;28;20747;-76
2022/03/09 05:50:21;;;;;;;7.28;4.88;;;4.30;1.00;;;;;;5079576;28;20200;-75
2022/03/09 05:52:51;;;;;;;5.70;4.47;;;4.30;1.00;;;;;;5077239;28;21257;-76
2022/03/09 05:55:19;;;;;;;7.40;4.85;;;4.40;1.00;;;;;;5078735;28;20451;-75
2022/03/09 05:57:47;;;;;;;6.38;3.63;;;4.50;1.00;;;;;;5076552;28;20231;-76
2022/03/09 06:00:16;;;;;;;5.75;3.97;;;4.20;1.00;;;;;;5076217;28;20212;-75
2022/03/09 06:02:47;;;;;;;6.20;4.35;;;4.20;1.00;;;;;;5079072;28;20196;-76
2022/03/09 06:05:20;;;;;;;6.63;4.18;;;4.10;1.00;;;;;;5079697;28;20292;-76
2022/03/09 06:07:50;;;;;;;7.22;3.70;;;4.00;1.00;;;;;;5082095;28;20226;-76
2022/03/09 06:10:18;;;;;;;8.13;4.32;;;4.10;1.00;;;;;;5084448;28;20210;-77
2022/03/09 06:12:47;;;;;;;5.25;3.85;;;4.20;1.00;;;;;;5083462;28;20201;-77
2022/03/09 06:15:15;;;;;;;6.35;3.10;;;4.10;1.00;;;;;;5079232;28;20195;-76
2022/03/09 06:17:47;;;;;;;7.65;4.32;;;4.30;1.00;;;;;;5082164;28;20235;-76
2022/03/09 06:20:17;;;;;;;7.57;4.03;;;4.30;1.00;;;;;;5077095;28;20218;-77
2022/03/09 06:22:46;;;;;;;8.55;5.68;;;4.20;1.00;;;;;;5074777;28;20215;-75
2022/03/09 06:25:16;;;;;;;9.90;6.20;;;4.20;1.00;;;;;;5081825;28;20210;-78
2022/03/09 06:27:46;;;;;;;10.82;7.63;;;4.30;1.00;;;;;;5077038;28;20553;-76
2022/03/09 06:30:14;;;;;;;11.30;6.75;;;4.30;1.00;;;;;;5083435;28;20208;-76
2022/03/09 06:32:43;;;;;;;8.27;6.47;;;4.30;1.00;;;;;;5079881;28;20211;-77
2022/03/09 06:35:13;;;;;;;9.32;5.65;;;4.30;1.00;;;;;;5078691;28;20207;-76
2022/03/09 06:37:42;;;;;;;11.35;6.72;;;4.30;1.00;;;;;;5082901;28;20255;-76
2022/03/09 06:40:12;;;;;;;9.23;5.78;;;4.30;1.00;;;;;;5078174;28;20215;-76
2022/03/09 06:42:41;;;;;;;15.60;6.93;;;4.40;1.00;;;;;;5078967;28;21064;-75
2022/03/09 06:45:10;;;;;;;11.35;6.70;;;4.50;1.00;;;;;;5084279;28;20208;-76
2022/03/09 06:47:38;;;;;;;7.70;5.60;;;4.50;1.00;;;;;;5083579;28;20216;-76
2022/03/09 06:50:09;;;;;;;11.93;6.00;;;4.60;1.00;;;;;;5080299;28;20212;-76
2022/03/09 06:52:38;;;;;;;12.23;6.43;;;4.60;1.00;;;;;;5081313;28;20207;-75
2022/03/09 06:55:09;;;;;;;11.05;6.15;;;4.70;1.00;;;;;;5077303;28;20697;-76
2022/03/09 06:57:37;;;;;;;7.18;5.82;;;4.80;1.00;;;;;;5073668;28;20227;-76
2022/03/09 07:00:11;;;;;;;9.20;6.80;;;5.00;1.00;;;;;;5080522;28;20211;-77
2022/03/09 07:02:39;;;;;;;18.20;6.93;;;5.00;1.00;;;;;;5075625;28;20192;-76
2022/03/09 07:05:09;;;;;;;13.38;7.55;;;5.00;1.00;;;;;;5079957;28;20196;-76
2022/03/09 07:07:37;;;;;;;12.20;7.13;;;5.00;1.00;;;;;;5075265;28;20735;-76
2022/03/09 07:10:10;;;;;;;9.43;6.57;;;5.00;1.00;;;;;;5076938;28;20192;-76
2022/03/09 07:12:43;;;;;;;12.40;7.13;;;5.10;1.00;;;;;;5085042;28;20768;-77
2022/03/09 07:15:13;;;;;;;12.02;6.03;;;5.40;1.00;;;;;;5075004;28;20620;-77
2022/03/09 07:17:41;;;;;;;8.02;6.18;;;5.30;1.00;;;;;;5073585;28;20211;-77
2022/03/09 07:20:11;;;;;;;10.50;5.65;;;5.40;1.00;;;;;;5074777;28;20223;-77
2022/03/09 07:22:40;;;;;;;10.07;5.30;;;5.50;1.00;;;;;;5073605;28;20557;-79
2022/03/09 07:25:10;;;;;;;10.57;6.40;;;5.60;1.00;;;;;;5075587;28;20173;-77
2022/03/09 07:27:38;;;;;;;9.27;6.32;;;5.70;1.00;;;;;;5075787;28;20231;-79
2022/03/09 07:30:09;;;;;;;13.02;6.85;;;5.60;1.00;;;;;;5076865;28;20200;-77
2022/03/09 07:32:39;;;;;;;13.43;6.20;;;5.60;1.00;;;;;;5077807;28;20335;-78
2022/03/09 07:35:20;;;;;;;9.10;5.80;;;5.70;1.00;;;;;;5084254;28;20493;-77
2022/03/09 07:37:51;;;;;;;5.63;4.78;;;5.60;1.00;;;;;;5075310;28;20476;-77
2022/03/09 07:40:20;;;;;;;8.95;6.30;;;5.70;1.00;;;;;;5085500;28;20758;-77
2022/03/09 07:42:48;;;;;;;8.83;5.77;;;5.90;1.00;;;;;;5080290;28;20192;-77
2022/03/09 07:45:17;;;;;;;9.93;5.70;;;6.00;1.00;;;;;;5081893;28;20458;-77
2022/03/09 07:47:46;;;;;;;11.57;7.35;;;6.30;1.00;;;;;;5078441;28;20459;-77
2022/03/09 07:50:15;;;;;;;10.23;6.20;;;6.40;1.00;;;;;;5080562;28;20211;-77
2022/03/09 07:52:43;;;;;;;8.70;5.97;;;6.60;1.00;;;;;;5080830;28;20450;-78
2022/03/09 07:55:11;;;;;;;10.00;6.60;;;6.70;1.00;;;;;;5074091;28;20450;-77
2022/03/09 07:57:39;;;;;;;7.50;5.87;;;6.80;1.00;;;;;;5073294;28;21283;-77
2022/03/09 08:00:09;;;;;;;8.00;5.63;;;6.90;1.00;;;;;;5078198;28;20477;-77
2022/03/09 08:02:37;;;;;;;8.33;5.50;;;7.00;1.00;;;;;;5077178;28;21047;-77
2022/03/09 08:05:08;;;;;;;7.90;4.63;;;6.90;1.00;;;;;;5076853;28;20446;-78
2022/03/09 08:07:36;;;;;;;7.60;4.90;;;7.00;1.00;;;;;;5078184;28;20499;-76
2022/03/09 08:10:05;;;;;;;7.00;4.70;;;7.30;1.00;;;;;;5076206;28;20464;-77
2022/03/09 08:12:34;;;;;;;8.80;6.10;;;7.50;1.00;;;;;;5075361;28;20450;-77
2022/03/09 08:15:03;;;;;;;7.87;5.07;;;7.80;1.00;;;;;;5082004;28;20465;-77
2022/03/09 08:17:31;;;;;;;7.97;5.97;;;8.00;1.00;;;;;;5080262;28;20477;-76
2022/03/09 08:20:00;;;;;;;12.00;6.80;;;8.20;1.00;;;;;;5076544;28;20444;-76
2022/03/09 08:22:29;;;;;;;11.07;5.60;;;8.50;1.00;;;;;;5078507;28;20295;-76
2022/03/09 08:24:58;;;;;;;9.20;6.70;;;8.70;1.00;;;;;;5081834;28;20446;-78
2022/03/09 08:27:26;;;;;;;10.10;6.50;;;9.00;1.00;;;;;;5079006;28;20483;-78
2022/03/09 08:29:54;;;;;;;7.70;5.43;;;9.20;1.00;;;;;;5079215;28;20829;-78
2022/03/09 08:32:22;;;;;;;7.63;5.63;;;9.40;1.00;;;;;;5077647;28;20445;-78
2022/03/09 08:34:52;;;;;;;7.40;5.77;;;9.70;1.00;;;;;;5081184;28;20465;-77
2022/03/09 08:37:20;;;;;;;7.07;5.73;;;9.80;1.00;;;;;;5078498;28;20636;-77
2022/03/09 08:39:50;;;;;;;7.70;5.47;;;9.90;1.00;;;;;;5085087;28;20507;-76
2022/03/09 08:42:19;;;;;;;8.50;6.20;;;10.10;1.00;;;;;;5077061;28;20894;-77
2022/03/09 08:44:47;;;;;;;9.17;6.30;;;10.20;1.00;;;;;;5078468;28;20858;-78
2022/03/09 08:47:18;;;;;;;9.80;6.50;;;10.40;1.00;;;;;;5079733;28;20817;-77
2022/03/09 08:49:47;;;;;;;7.77;6.70;;;10.60;1.00;;;;;;5085639;28;20213;-78
2022/03/09 08:52:15;;;;;;;7.97;6.83;;;10.80;1.00;;;;;;5080778;28;20464;-78
2022/03/09 08:54:43;;;;;;;8.10;6.00;;;10.90;1.00;;;;;;5081398;28;20511;-77
2022/03/09 08:57:13;;;;;;;8.67;6.13;;;11.00;1.00;;;;;;5079554;28;20485;-77
2022/03/09 08:59:44;;;;;;;9.43;5.87;;;11.20;1.00;;;;;;5083128;28;20461;-78
2022/03/09 09:02:12;;;;;;;9.37;5.67;;;11.30;1.00;;;;;;5080207;28;20537;-76
2022/03/09 09:04:43;;;;;;;8.17;6.67;;;11.50;1.00;;;;;;5088721;28;20936;-77
2022/03/09 09:07:11;;;;;;;10.50;6.00;;;11.50;1.00;;;;;;5087523;28;21008;-77
2022/03/09 09:09:39;;;;;;;6.90;6.20;;;11.60;1.00;;;;;;5083295;28;20485;-77
2022/03/09 09:12:08;;;;;;;11.93;6.60;;;11.90;1.00;;;;;;5080636;28;20530;-79
2022/03/09 09:14:37;;;;;;;6.30;5.70;;;12.10;1.00;;;;;;5083495;28;21183;-79
2022/03/09 09:17:07;;;;;;;6.93;5.67;;;12.30;1.00;;;;;;5083871;28;20910;-79
2022/03/09 09:19:55;;;;;;;9.77;6.20;;;12.50;1.00;;;;;;5082774;28;20466;-77
2022/03/09 09:22:23;;;;;;;11.73;8.00;;;12.70;1.00;;;;;;5083144;28;21039;-77
2022/03/09 09:24:52;;;;;;;9.10;6.83;;;12.70;1.00;;;;;;5083052;28;20715;-74
2022/03/09 09:27:20;;;;;;;30.37;8.17;;;12.80;1.00;;;;;;5084712;28;21076;-78
2022/03/09 09:30:11;;;;;;;10.20;7.60;;;12.80;1.00;;;;;;5084553;28;20820;-77
2022/03/09 09:32:39;;;;;;;11.10;6.37;;;13.00;1.00;;;;;;5082558;28;20465;-77
2022/03/09 09:35:08;;;;;;;7.60;6.40;;;13.30;1.00;;;;;;5084043;28;20459;-77
2022/03/09 09:37:37;;;;;;;8.33;5.80;;;13.50;1.00;;;;;;5083159;28;20473;-76
2022/03/09 09:40:06;;;;;;;10.53;7.40;;;13.70;1.00;;;;;;5083578;28;20445;-77
2022/03/09 09:42:35;;;;;;;10.70;6.90;;;13.90;1.00;;;;;;5082047;28;20466;-78
2022/03/09 09:45:24;;;;;;;11.07;7.60;;;13.80;1.00;;;;;;5075896;28;20926;-76
2022/03/09 09:47:53;;;;;;;8.88;7.60;;;13.90;1.00;;;;;;5079163;28;21094;-77
2022/03/09 09:50:21;;;;;;;9.97;7.40;;;13.90;1.00;;;;;;5080937;28;20194;-77
2022/03/09 09:52:52;;;;;;;8.57;6.43;;;14.00;1.00;;;;;;5080794;28;20446;-77
2022/03/09 09:55:20;;;;;;;9.63;6.83;;;14.20;1.00;;;;;;5081899;28;20995;-78
2022/03/09 09:57:49;;;;;;;7.93;6.17;;;14.30;1.00;;;;;;5079440;28;20529;-78
2022/03/09 10:00:17;;;;;;;8.57;6.47;;;14.40;1.00;;;;;;5094014;28;20512;-77
2022/03/09 10:02:47;;;;;;;8.67;6.87;;;14.60;1.00;;;;;;5077914;28;20499;-77
2022/03/09 10:05:18;;;;;;;9.40;7.57;;;14.80;1.00;;;;;;5081993;28;20979;-77
2022/03/09 10:08:09;;;;;;;8.17;6.43;;;14.90;1.00;;;;;;5081921;28;20480;-77
2022/03/09 10:10:38;;;;;;;7.57;6.17;;;15.00;1.00;;;;;;5082258;28;21012;-78
2022/03/09 10:13:14;;;;;;;9.87;6.50;;;15.10;1.00;;;;;;5083672;28;20444;-77
2022/03/09 10:15:44;;;;;;;9.52;7.13;;;15.10;1.00;;;;;;5082404;28;20531;-77
2022/03/09 10:18:17;;;;;;;9.13;6.73;;;15.10;1.00;;;;;;5077923;28;20239;-78
2022/03/09 10:20:46;;;;;;;7.90;6.97;;;15.20;1.00;;;;;;5080656;28;20463;-78
2022/03/09 10:23:15;;;;;;;9.53;6.30;;;15.20;1.00;;;;;;5078186;28;20556;-77
2022/03/09 10:25:44;;;;;;;8.73;6.17;;;15.10;1.00;;;;;;5084627;28;20989;-78
2022/03/09 10:28:13;;;;;;;9.97;5.87;;;15.10;1.00;;;;;;5081546;28;21025;-78
2022/03/09 10:30:43;;;;;;;13.10;7.33;;;15.20;1.00;;;;;;5079036;28;21050;-77
2022/03/09 10:33:14;;;;;;;9.90;6.82;;;15.30;1.00;;;;;;5077968;28;20437;-80
2022/03/09 10:35:45;;;;;;;11.90;8.30;;;15.30;1.00;;;;;;5077287;28;20212;-79
2022/03/09 10:38:25;;;;;;;8.53;7.00;;;15.40;1.00;;;;;;5076604;28;20484;-79
2022/03/09 10:40:56;;;;;;;9.57;6.50;;;15.70;1.00;;;;;;5081115;28;20990;-78
2022/03/09 10:43:27;;;;;;;7.17;6.43;;;16.10;1.00;;;;;;5087085;28;21045;-79
2022/03/09 10:46:04;;;;;;;10.90;7.10;;;16.40;1.00;;;;;;5076756;28;20810;-80
2022/03/09 10:48:57;;;;;;;11.20;6.70;;;16.60;1.00;;;;;;5077233;28;20500;-78
2022/03/09 10:51:27;;;;;;;9.70;7.20;;;16.90;1.00;;;;;;5084570;28;20449;-78
2022/03/09 10:53:55;;;;;;;8.40;6.77;;;17.30;1.00;;;;;;5079318;28;20455;-80
2022/03/09 10:56:24;;;;;;;8.87;7.30;;;17.50;1.00;;;;;;5076327;28;20450;-79
2022/03/09 10:58:52;;;;;;;7.40;6.27;;;17.70;1.00;;;;;;5072856;28;20544;-80
2022/03/09 11:01:23;;;;;;;7.87;6.57;;;17.90;1.00;;;;;;5075072;28;20454;-79
2022/03/09 11:03:51;;;;;;;8.67;7.50;;;18.00;1.00;;;;;;5077149;28;20460;-79
2022/03/09 11:06:21;;;;;;;9.60;7.33;;;18.20;1.00;;;;;;5084770;28;20485;-79
2022/03/09 11:08:50;;;;;;;11.60;7.50;;;18.30;1.00;;;;;;5080053;28;20460;-79
2022/03/09 11:11:21;;;;;;;7.50;6.70;;;18.30;1.00;;;;;;5082601;28;20465;-79
2022/03/09 11:13:49;;;;;;;8.20;6.40;;;18.60;1.00;;;;;;5084819;28;21202;-79
2022/03/09 11:16:19;;;;;;;8.23;6.37;;;18.90;1.00;;;;;;5077979;28;20449;-79
2022/03/09 11:18:48;;;;;;;8.37;7.10;;;19.50;1.00;;;;;;5079832;28;20991;-79
2022/03/09 11:21:17;;;;;;;9.73;6.50;;;19.60;1.00;;;;;;5073592;28;20508;-79
2022/03/09 11:23:48;;;;;;;7.13;6.43;;;19.90;1.00;;;;;;5081356;28;21104;-79
2022/03/09 11:26:21;;;;;;;12.80;6.53;;;20.20;2.20;;;;;;5079394;28;20455;-79
2022/03/09 11:28:59;;;;;;;7.23;6.00;;;20.40;4.10;;;;;;5074633;28;20456;-79
2022/03/09 11:31:46;;;;;;;8.73;6.60;;;20.20;1.40;;;;;;5074398;28;21013;-78
2022/03/09 11:34:37;;;;;;;8.53;7.33;;;20.20;1.00;;;;;;5077662;28;21118;-78
2022/03/09 11:37:07;;;;;;;6.83;6.07;;;20.00;1.00;;;;;;5078515;28;20552;-78
2022/03/09 11:39:38;;;;;;;6.63;5.90;;;19.80;1.00;;;;;;5076519;28;20458;-79
2022/03/09 11:42:35;;;;;;;6.30;5.50;;;19.60;1.00;;;;;;5075703;28;21235;-78
2022/03/09 11:45:33;;;;;;;7.47;6.73;;;19.30;1.00;;;;;;5052197;28;20458;-79
2022/03/09 11:48:05;;;;;;;7.00;6.30;;;18.90;1.00;;;;;;5044934;28;20914;-78
2022/03/09 11:50:35;;;;;;;7.13;5.97;;;18.70;1.00;;;;;;5075079;28;20466;-78
2022/03/09 11:53:05;;;;;;;11.13;6.80;;;18.50;1.00;;;;;;5075941;28;20445;-78
2022/03/09 11:55:36;;;;;;;9.87;7.67;;;18.40;1.00;;;;;;5074938;28;20464;-79
2022/03/09 11:58:10;;;;;;;6.17;5.27;;;18.30;1.00;;;;;;5075998;28;20477;-79
2022/03/09 12:00:41;;;;;;;6.77;6.00;;;18.10;1.00;;;;;;5072615;28;20454;-79
2022/03/09 12:03:10;;;;;;;8.13;6.13;;;18.00;1.00;;;;;;5081005;28;20832;-79
2022/03/09 12:05:41;;;;;;;9.00;6.30;;;18.00;1.00;;;;;;5074573;28;20456;-79
2022/03/09 12:08:10;;;;;;;6.33;5.73;;;18.00;1.00;;;;;;5088412;28;20474;-78
2022/03/09 12:10:57;;;;;;;7.77;5.70;;;18.00;1.00;;;;;;5078449;28;20532;-78
2022/03/09 12:13:35;;;;;;;7.50;6.40;;;18.00;1.00;;;;;;5074309;28;20455;-79
2022/03/09 12:16:26;;;;;;;7.07;5.87;;;17.90;1.00;;;;;;5072509;28;20261;-79
2022/03/09 12:19:13;;;;;;;9.57;6.83;;;17.80;1.00;;;;;;5072528;28;21007;-79
2022/03/09 12:22:05;;;;;;;7.67;5.83;;;17.70;1.00;;;;;;5071413;28;20589;-80
2022/03/09 12:24:36;;;;;;;11.50;7.17;;;17.70;1.00;;;;;;5080789;28;20991;-78
2022/03/09 12:27:26;;;;;;;10.00;6.90;;;17.80;1.00;;;;;;5080630;28;20570;-78
2022/03/09 12:29:54;;;;;;;8.93;6.90;;;17.60;1.00;;;;;;5080790;28;20968;-77
2022/03/09 12:32:23;;;;;;;11.07;7.90;;;17.60;1.00;;;;;;5081524;28;20515;-78
2022/03/09 12:34:52;;;;;;;10.63;7.27;;;17.70;1.00;;;;;;5081515;28;20443;-78
2022/03/09 12:37:26;;;;;;;11.80;7.90;;;17.60;1.00;;;;;;5084290;28;20475;-79
2022/03/09 12:39:57;;;;;;;12.83;7.67;;;17.50;1.00;;;;;;5081866;28;20487;-78
2022/03/09 12:42:28;;;;;;;12.13;8.83;;;17.50;1.00;;;;;;5076872;28;20467;-78
2022/03/09 12:45:01;;;;;;;12.27;7.53;;;17.60;1.00;;;;;;5078998;28;20455;-78
2022/03/09 12:47:34;;;;;;;10.83;7.87;;;17.40;1.00;;;;;;5085678;28;20816;-79
2022/03/09 12:50:04;;;;;;;9.47;7.00;;;17.30;1.00;;;;;;5080489;28;20530;-78
2022/03/09 12:52:42;;;;;;;10.07;7.80;;;17.30;1.00;;;;;;5081550;28;21182;-78
2022/03/09 12:55:10;;;;;;;9.20;7.23;;;17.40;1.00;;;;;;5085123;28;20252;-78
2022/03/09 12:57:40;;;;;;;8.20;6.87;;;17.50;1.00;;;;;;5086696;28;21270;-78
2022/03/09 13:00:13;;;;;;;8.87;6.47;;;17.70;1.00;;;;;;5084076;28;20461;-79
2022/03/09 13:02:43;;;;;;;8.30;5.90;;;17.70;1.00;;;;;;5081560;28;20463;-77
2022/03/09 13:05:15;;;;;;;9.73;6.40;;;17.70;1.00;;;;;;5082165;28;20465;-77
2022/03/09 13:07:59;;;;;;;9.77;6.70;;;17.60;1.00;;;;;;5084631;28;20484;-78
2022/03/09 13:10:29;;;;;;;8.30;6.03;;;17.70;1.00;;;;;;5090254;28;21258;-78
2022/03/09 13:13:01;;;;;;;9.23;6.33;;;17.60;1.00;;;;;;5084562;28;20462;-78
2022/03/09 13:15:41;;;;;;;10.23;7.30;;;17.50;1.00;;;;;;5088102;28;20821;-78
2022/03/09 13:18:12;;;;;;;12.00;7.37;;;17.60;1.00;;;;;;5083329;28;20484;-77
2022/03/09 13:20:42;;;;;;;7.23;6.50;;;17.70;1.00;;;;;;5085064;28;20467;-78
2022/03/09 13:23:32;;;;;;;8.60;7.53;;;17.70;1.00;;;;;;5080897;28;20488;-77